createdAt,value
2023-04-18T00:01:32.136Z,34.82
2023-04-18T00:04:35.196Z,34.80
2023-04-18T00:07:38.042Z,34.35
2023-04-18T00:10:42.392Z,34.71
2023-04-18T00:13:47.551Z,34.46
2023-04-18T00:16:50.395Z,34.54
2023-04-18T00:19:53.386Z,34.54
2023-04-18T00:22:56.224Z,34.44
2023-04-18T00:26:00.330Z,34.34
2023-04-18T00:29:03.619Z,35.20
2023-04-18T00:32:06.556Z,34.54
2023-04-18T00:35:10.405Z,34.40
2023-04-18T00:38:13.162Z,34.58
2023-04-18T00:41:17.337Z,34.68
2023-04-18T00:44:20.058Z,34.97
2023-04-18T00:47:22.969Z,34.83
2023-04-18T00:50:25.891Z,35.46
2023-04-18T00:53:28.918Z,34.53
2023-04-18T00:56:33.209Z,34.58
2023-04-18T00:59:36.176Z,34.63
2023-04-18T01:02:39.833Z,34.57
2023-04-18T01:05:42.795Z,35.08
2023-04-18T01:08:46.142Z,34.67
2023-04-18T01:11:50.325Z,34.92
2023-04-18T01:14:53.052Z,34.72
2023-04-18T01:17:55.905Z,34.45
2023-04-18T01:21:00.412Z,34.68
2023-04-18T01:24:10.305Z,34.58
2023-04-18T01:27:13.587Z,34.81
2023-04-18T01:30:16.396Z,35.02
2023-04-18T01:33:19.219Z,34.39
2023-04-18T01:36:22.060Z,34.79
2023-04-18T01:39:26.271Z,34.44
2023-04-18T01:42:29.177Z,34.65
2023-04-18T01:45:32.027Z,34.59
2023-04-18T01:48:34.784Z,34.73
2023-04-18T01:51:38.939Z,34.40
2023-04-18T01:54:44.132Z,34.45
2023-04-18T01:57:47.060Z,34.75
2023-04-18T02:00:49.839Z,34.30
2023-04-18T02:03:53.008Z,34.76
2023-04-18T02:06:56.047Z,34.56
2023-04-18T02:10:00.216Z,34.87
2023-04-18T02:13:03.001Z,34.84
2023-04-18T02:16:06.213Z,34.47
2023-04-18T02:19:09.238Z,34.87
2023-04-18T02:22:11.995Z,34.28
2023-04-18T02:25:16.177Z,34.26
2023-04-18T02:28:19.042Z,34.52
2023-04-18T02:31:21.837Z,34.57
2023-04-18T02:34:24.685Z,34.51
2023-04-18T02:37:27.495Z,34.91
2023-04-18T02:40:31.736Z,34.70
2023-04-18T02:43:34.678Z,34.55
2023-04-18T02:46:37.466Z,35.22
2023-04-18T02:49:40.300Z,34.55
2023-04-18T02:52:43.985Z,34.66
2023-04-18T02:55:48.128Z,34.79
2023-04-18T02:58:50.926Z,34.76
2023-04-18T03:01:53.823Z,34.61
2023-04-18T03:04:57.057Z,34.67
2023-04-18T03:07:59.795Z,34.59
2023-04-18T03:11:03.982Z,35.17
2023-04-18T03:14:06.724Z,34.65
2023-04-18T03:17:09.598Z,34.83
2023-04-18T03:20:12.887Z,35.17
2023-04-18T03:23:15.973Z,35.63
2023-04-18T03:26:20.222Z,35.16
2023-04-18T03:29:23.050Z,35.45
2023-04-18T03:32:25.956Z,34.84
2023-04-18T03:35:28.736Z,34.94
2023-04-18T03:38:31.928Z,34.90
2023-04-18T03:41:36.105Z,35.37
2023-04-18T03:44:38.939Z,35.09
2023-04-18T03:47:41.760Z,34.74
2023-04-18T03:50:44.924Z,35.09
2023-04-18T03:53:47.698Z,35.04
2023-04-18T03:56:51.898Z,35.14
2023-04-18T03:59:54.710Z,35.10
2023-04-18T04:02:57.729Z,34.93
2023-04-18T04:06:01.050Z,35.20
2023-04-18T04:09:04.123Z,34.97
2023-04-18T04:12:08.421Z,34.69
2023-04-18T04:15:11.988Z,34.83
2023-04-18T04:18:14.820Z,35.00
2023-04-18T04:21:18.905Z,34.86
2023-04-18T04:24:24.471Z,34.92
2023-04-18T04:27:28.641Z,35.27
2023-04-18T04:30:34.706Z,35.00
2023-04-18T04:33:38.956Z,35.11
2023-04-18T04:36:43.187Z,34.91
2023-04-18T04:39:46.268Z,35.21
2023-04-18T04:42:54.081Z,34.83
2023-04-18T04:45:57.838Z,34.88
2023-04-18T04:49:00.958Z,34.92
2023-04-18T04:52:03.999Z,35.03
2023-04-18T04:55:07.229Z,35.01
2023-04-18T04:58:11.413Z,35.11
2023-04-18T05:01:14.216Z,35.16
2023-04-18T05:04:17.335Z,35.54
2023-04-18T05:07:20.470Z,35.16
2023-04-18T05:10:24.069Z,35.24
2023-04-18T05:13:28.256Z,35.15
2023-04-18T05:16:31.682Z,35.46
2023-04-18T05:19:34.515Z,34.87
2023-04-18T05:22:37.383Z,35.15
2023-04-18T05:25:40.217Z,35.42
2023-04-18T05:28:44.405Z,35.09
2023-04-18T05:31:47.168Z,35.19
2023-04-18T05:34:50.104Z,34.99
2023-04-18T05:37:52.817Z,35.13
2023-04-18T05:40:56.097Z,35.01
2023-04-18T05:44:05.308Z,35.04
2023-04-18T05:47:08.772Z,34.91
2023-04-18T05:50:11.621Z,34.96
2023-04-18T05:53:14.376Z,34.62
2023-04-18T05:56:17.131Z,35.12
2023-04-18T05:59:21.774Z,35.13
2023-04-18T06:02:24.850Z,35.11
2023-04-18T06:05:28.069Z,35.26
2023-04-18T06:08:30.982Z,34.48
2023-04-18T06:11:35.777Z,34.88
2023-04-18T06:14:39.996Z,34.99
2023-04-18T06:17:42.866Z,34.37
2023-04-18T06:20:45.689Z,34.21
2023-04-18T06:23:48.465Z,34.21
2023-04-18T06:26:51.262Z,34.19
2023-04-18T06:29:55.440Z,34.11
2023-04-18T06:32:58.284Z,34.04
2023-04-18T06:36:01.116Z,33.87
2023-04-18T06:39:03.987Z,34.22
2023-04-18T06:42:06.867Z,34.24
2023-04-18T06:45:12.166Z,34.09
2023-04-18T06:48:15.087Z,34.05
2023-04-18T06:51:17.812Z,33.96
2023-04-18T06:54:20.655Z,33.91
2023-04-18T06:57:23.444Z,34.21
2023-04-18T07:00:27.763Z,34.11
2023-04-18T07:03:30.729Z,34.11
2023-04-18T07:06:33.843Z,34.02
2023-04-18T07:09:36.639Z,33.90
2023-04-18T07:12:39.407Z,34.40
2023-04-18T07:15:43.573Z,33.93
2023-04-18T07:18:46.415Z,34.06
2023-04-18T07:21:49.180Z,33.91
2023-04-18T07:24:51.973Z,33.79
2023-04-18T07:27:54.768Z,33.74
2023-04-18T07:30:59.298Z,33.50
2023-04-18T07:34:02.096Z,33.49
2023-04-18T07:37:04.886Z,33.63
2023-04-18T07:40:08.554Z,33.62
2023-04-18T07:43:11.369Z,33.46
2023-04-18T07:46:15.694Z,33.46
2023-04-18T07:49:18.488Z,33.64
2023-04-18T07:52:21.295Z,33.35
2023-04-18T07:55:24.084Z,33.61
2023-04-18T07:58:26.832Z,33.49
2023-04-18T08:01:31.141Z,33.46
2023-04-18T08:04:34.252Z,33.30
2023-04-18T08:07:37.312Z,33.46
2023-04-18T08:10:40.507Z,33.35
2023-04-18T08:13:43.305Z,33.62
2023-04-18T08:16:47.515Z,33.66
2023-04-18T08:19:50.335Z,33.37
2023-04-18T08:23:05.623Z,33.57
2023-04-18T08:26:11.708Z,33.58
2023-04-18T08:29:14.740Z,33.83
2023-04-18T08:32:19.135Z,33.51
2023-04-18T08:35:22.142Z,33.50
2023-04-18T08:38:24.906Z,33.03
2023-04-18T08:41:28.824Z,33.13
2023-04-18T08:44:32.837Z,33.13
2023-04-18T08:47:37.226Z,32.98
2023-04-18T08:50:39.984Z,33.37
2023-04-18T08:53:44.830Z,33.26
2023-04-18T08:56:47.906Z,33.35
2023-04-18T08:59:51.161Z,33.27
2023-04-18T09:02:57.161Z,33.20
2023-04-18T09:06:08.438Z,33.20
2023-04-18T09:09:11.512Z,33.31
2023-04-18T09:12:15.478Z,33.20
2023-04-18T09:15:20.313Z,33.19
2023-04-18T09:18:24.678Z,33.38
2023-04-18T09:21:28.034Z,33.17
2023-04-18T09:24:32.115Z,33.37
2023-04-18T09:27:35.981Z,33.34
2023-04-18T09:30:39.734Z,33.52
2023-04-18T09:33:52.864Z,33.41
2023-04-18T09:37:08.835Z,33.41
2023-04-18T09:40:17.384Z,33.54
2023-04-18T09:43:20.586Z,31.87
2023-04-18T09:46:23.541Z,31.50
2023-04-18T09:49:28.143Z,29.66
2023-04-18T09:52:33.418Z,32.93
2023-04-18T09:55:36.568Z,34.21
2023-04-18T09:58:42.345Z,33.65
2023-04-18T10:01:48.492Z,30.42
2023-04-18T10:04:53.492Z,32.56
2023-04-18T10:07:56.778Z,30.66
2023-04-18T10:10:59.709Z,32.70
2023-04-18T10:14:04.496Z,32.52
2023-04-18T10:17:07.459Z,33.13
2023-04-18T10:20:17.486Z,32.89
2023-04-18T10:23:36.529Z,33.15
2023-04-18T10:26:47.598Z,32.72
2023-04-18T10:29:51.082Z,32.81
2023-04-18T10:32:56.217Z,32.88
2023-04-18T10:36:01.669Z,32.77
2023-04-18T10:39:23.270Z,32.71
2023-04-18T10:42:47.187Z,32.56
2023-04-18T10:46:23.766Z,32.75
2023-04-18T10:49:33.893Z,32.63
2023-04-18T10:52:38.217Z,30.58
2023-04-18T10:55:44.740Z,28.98
2023-04-18T10:58:51.080Z,31.65
2023-04-18T11:01:56.458Z,29.30
2023-04-18T11:05:00.000Z,29.80
2023-04-18T11:08:04.667Z,31.66
2023-04-18T11:11:09.642Z,32.01
2023-04-18T11:14:12.753Z,31.65
2023-04-18T11:17:22.091Z,31.73
2023-04-18T11:20:24.880Z,32.31
2023-04-18T11:23:28.987Z,32.02
2023-04-18T11:26:31.760Z,32.33
2023-04-18T11:29:34.522Z,31.71
2023-04-18T11:32:37.387Z,32.00
2023-04-18T11:35:40.804Z,32.21
2023-04-18T11:38:45.002Z,32.15
2023-04-18T11:41:51.147Z,32.05
2023-04-18T11:44:53.929Z,32.27
2023-04-18T11:47:57.191Z,32.19
2023-04-18T11:50:59.957Z,32.35
2023-04-18T11:54:04.319Z,32.55
2023-04-18T11:57:07.699Z,32.69
2023-04-18T12:00:12.769Z,32.36
2023-04-18T12:03:16.817Z,32.55
2023-04-18T12:06:19.904Z,32.41
2023-04-18T12:09:26.248Z,31.99
2023-04-18T12:12:29.039Z,32.22
2023-04-18T12:15:32.077Z,32.48
2023-04-18T12:18:35.088Z,32.61
2023-04-18T12:21:37.893Z,32.69
2023-04-18T12:24:42.025Z,32.01
2023-04-18T12:27:57.989Z,32.78
2023-04-18T12:31:00.876Z,32.52
2023-04-18T12:34:03.693Z,32.49
2023-04-18T12:37:06.451Z,32.66
2023-04-18T12:40:13.586Z,32.43
2023-04-18T12:43:16.653Z,32.60
2023-04-18T12:46:19.508Z,32.70
2023-04-18T12:49:22.296Z,32.73
2023-04-18T12:52:25.124Z,32.73
2023-04-18T12:55:29.416Z,32.57
2023-04-18T12:58:32.219Z,32.54
2023-04-18T13:01:35.036Z,32.56
2023-04-18T13:04:38.077Z,32.31
2023-04-18T13:07:42.551Z,32.46
2023-04-18T13:10:47.591Z,32.63
2023-04-18T13:13:50.545Z,32.23
2023-04-18T13:16:53.361Z,32.39
2023-04-18T13:19:56.333Z,32.27
2023-04-18T13:22:59.200Z,32.44
2023-04-18T13:26:03.449Z,32.61
2023-04-18T13:29:06.297Z,32.77
2023-04-18T13:32:09.456Z,32.74
2023-04-18T13:35:12.361Z,32.73
2023-04-18T13:38:15.563Z,32.56
2023-04-18T13:41:19.645Z,32.64
2023-04-18T13:44:22.433Z,32.51
2023-04-18T13:47:25.250Z,32.86
2023-04-18T13:50:28.109Z,32.58
2023-04-18T13:53:31.343Z,32.64
2023-04-18T13:56:35.557Z,32.61
2023-04-18T13:59:38.687Z,32.92
2023-04-18T14:02:41.801Z,32.57
2023-04-18T14:05:44.681Z,32.44
2023-04-18T14:08:47.477Z,32.20
2023-04-18T14:11:51.814Z,32.31
2023-04-18T14:15:06.821Z,32.30
2023-04-18T14:18:09.604Z,31.94
2023-04-18T14:21:12.463Z,32.42
2023-04-18T14:24:15.375Z,32.30
2023-04-18T14:27:19.513Z,32.14
2023-04-18T14:30:22.858Z,32.65
2023-04-18T14:33:26.273Z,32.85
2023-04-18T14:36:29.069Z,32.90
2023-04-18T14:39:32.295Z,33.08
2023-04-18T14:42:36.526Z,33.03
2023-04-18T14:45:39.370Z,32.80
2023-04-18T14:48:42.116Z,32.87
2023-04-18T14:51:44.931Z,32.92
2023-04-18T14:54:47.700Z,33.12
2023-04-18T14:57:51.767Z,33.08
2023-04-18T15:00:54.498Z,33.12
2023-04-18T15:03:57.530Z,33.21
2023-04-18T15:07:00.740Z,32.75
2023-04-18T15:10:03.902Z,32.34
2023-04-18T15:13:08.094Z,32.58
2023-04-18T15:16:11.002Z,32.66
2023-04-18T15:19:13.775Z,32.66
2023-04-18T15:22:16.604Z,32.23
2023-04-18T15:25:19.367Z,32.35
2023-04-18T15:28:23.585Z,32.59
2023-04-18T15:31:27.664Z,32.62
2023-04-18T15:34:30.483Z,32.64
2023-04-18T15:37:33.316Z,32.79
2023-04-18T15:40:36.638Z,33.19
2023-04-18T15:43:41.860Z,32.42
2023-04-18T15:46:44.619Z,32.50
2023-04-18T15:49:47.388Z,32.85
2023-04-18T15:52:50.222Z,32.92
2023-04-18T15:55:53.876Z,32.79
2023-04-18T15:58:58.108Z,33.13
2023-04-18T16:02:02.384Z,33.38
2023-04-18T16:05:05.665Z,33.44
2023-04-18T16:08:09.046Z,33.01
2023-04-18T16:11:11.860Z,32.97
2023-04-18T16:14:14.928Z,33.56
2023-04-18T16:17:19.375Z,33.16
2023-04-18T16:20:22.174Z,33.40
2023-04-18T16:23:24.942Z,33.76
2023-04-18T16:26:28.949Z,33.20
2023-04-18T16:29:31.740Z,33.62
2023-04-18T16:32:35.898Z,33.92
2023-04-18T16:35:38.798Z,33.38
2023-04-18T16:38:41.529Z,33.63
2023-04-18T16:41:44.322Z,33.68
2023-04-18T16:44:47.397Z,33.63
2023-04-18T16:47:51.673Z,33.94
2023-04-18T16:50:54.494Z,33.42
2023-04-18T16:53:59.921Z,33.63
2023-04-18T16:57:02.910Z,33.71
2023-04-18T17:00:06.849Z,33.76
2023-04-18T17:03:11.103Z,33.59
2023-04-18T17:06:13.890Z,33.69
2023-04-18T17:09:16.832Z,33.96
2023-04-18T17:12:19.700Z,33.69
2023-04-18T17:15:22.510Z,33.52
2023-04-18T17:18:26.716Z,33.73
2023-04-18T17:21:29.459Z,33.76
2023-04-18T17:24:32.252Z,33.69
2023-04-18T17:27:35.059Z,33.56
2023-04-18T17:30:40.636Z,33.59
2023-04-18T17:33:45.135Z,33.52
2023-04-18T17:36:47.919Z,33.92
2023-04-18T17:39:50.763Z,33.60
2023-04-18T17:42:53.568Z,33.61
2023-04-18T17:45:56.980Z,33.73
2023-04-18T17:49:01.225Z,33.66
2023-04-18T17:52:04.402Z,33.54
2023-04-18T17:55:10.168Z,33.58
2023-04-18T17:58:12.962Z,33.92
2023-04-18T18:01:16.179Z,33.71
2023-04-18T18:04:22.389Z,33.80
2023-04-18T18:07:26.592Z,33.92
2023-04-18T18:10:29.829Z,33.68
2023-04-18T18:13:32.644Z,33.75
2023-04-18T18:16:40.590Z,33.74
2023-04-18T18:19:44.759Z,33.83
2023-04-18T18:22:47.525Z,33.73
2023-04-18T18:25:50.832Z,33.90
2023-04-18T18:28:53.722Z,33.63
2023-04-18T18:31:56.474Z,33.60
2023-04-18T18:35:01.851Z,33.87
2023-04-18T18:38:04.670Z,33.57
2023-04-18T18:41:07.919Z,33.91
2023-04-18T18:44:11.630Z,33.81
2023-04-18T18:47:14.424Z,33.80
2023-04-18T18:50:18.667Z,33.53
2023-04-18T18:53:21.413Z,33.73
2023-04-18T18:56:24.445Z,33.74
2023-04-18T18:59:27.205Z,34.06
2023-04-18T19:02:31.969Z,34.09
2023-04-18T19:05:36.269Z,33.71
2023-04-18T19:08:39.053Z,33.85
2023-04-18T19:11:41.866Z,33.89
2023-04-18T19:14:44.861Z,33.96
2023-04-18T19:17:47.648Z,34.09
2023-04-18T19:20:51.873Z,34.14
2023-04-18T19:23:54.637Z,34.14
2023-04-18T19:26:57.382Z,34.06
2023-04-18T19:30:00.241Z,34.00
2023-04-18T19:33:03.021Z,34.20
2023-04-18T19:36:07.430Z,34.25
2023-04-18T19:39:10.199Z,33.96
2023-04-18T19:42:13.032Z,34.42
2023-04-18T19:45:16.145Z,33.70
2023-04-18T19:48:18.936Z,33.91
2023-04-18T19:51:23.205Z,34.12
2023-04-18T19:54:25.981Z,34.14
2023-04-18T19:57:29.044Z,34.00
2023-04-18T20:00:31.887Z,33.99
2023-04-18T20:03:35.092Z,34.38
2023-04-18T20:06:39.404Z,34.46
2023-04-18T20:09:43.388Z,34.11
2023-04-18T20:12:48.205Z,34.15
2023-04-18T20:15:53.038Z,34.05
2023-04-18T20:18:55.933Z,34.13
2023-04-18T20:22:00.182Z,34.17
2023-04-18T20:25:02.932Z,34.52
2023-04-18T20:28:06.434Z,34.77
2023-04-18T20:31:09.273Z,34.60
2023-04-18T20:34:12.130Z,34.34
2023-04-18T20:37:19.867Z,34.59
2023-04-18T20:40:22.928Z,34.84
2023-04-18T20:43:25.955Z,34.65
2023-04-18T20:46:28.863Z,34.55
2023-04-18T20:49:31.663Z,34.78
2023-04-18T20:52:35.865Z,34.68
2023-04-18T20:55:38.599Z,34.74
2023-04-18T20:58:41.968Z,34.79
2023-04-18T21:01:47.580Z,34.59
2023-04-18T21:04:50.485Z,34.65
2023-04-18T21:07:54.722Z,34.79
2023-04-18T21:10:57.463Z,34.80
2023-04-18T21:14:00.222Z,35.27
2023-04-18T21:17:02.995Z,34.80
2023-04-18T21:20:06.396Z,34.79
2023-04-18T21:23:10.667Z,34.81
2023-04-18T21:26:13.896Z,34.56
2023-04-18T21:29:17.644Z,34.83
2023-04-18T21:32:21.160Z,34.74
2023-04-18T21:35:24.948Z,35.23
2023-04-18T21:38:29.317Z,34.88
2023-04-18T21:41:32.604Z,34.86
2023-04-18T21:44:35.710Z,35.10
2023-04-18T21:47:38.550Z,34.72
2023-04-18T21:50:43.098Z,34.93
2023-04-18T21:53:47.251Z,34.97
2023-04-18T21:56:50.047Z,35.10
2023-04-18T21:59:52.768Z,35.09
2023-04-18T22:02:55.705Z,35.07
2023-04-18T22:05:58.580Z,35.05
2023-04-18T22:09:02.707Z,35.28
2023-04-18T22:12:05.858Z,35.15
2023-04-18T22:15:09.105Z,35.13
2023-04-18T22:18:14.376Z,34.92
2023-04-18T22:21:17.335Z,35.02
2023-04-18T22:24:22.071Z,34.88
2023-04-18T22:27:24.819Z,34.60
2023-04-18T22:30:27.666Z,34.76
2023-04-18T22:33:30.415Z,35.05
2023-04-18T22:36:34.242Z,35.02
2023-04-18T22:39:38.348Z,35.03
2023-04-18T22:42:41.127Z,34.92
2023-04-18T22:45:43.965Z,35.23
2023-04-18T22:48:46.875Z,35.04
2023-04-18T22:51:49.728Z,35.01
2023-04-18T22:54:54.084Z,35.23
2023-04-18T22:57:57.210Z,35.53
2023-04-18T23:01:00.795Z,35.18
2023-04-18T23:04:03.737Z,35.40
2023-04-18T23:07:07.806Z,34.94
2023-04-18T23:10:12.482Z,35.22
2023-04-18T23:13:15.402Z,35.27
2023-04-18T23:16:18.153Z,35.19
2023-04-18T23:19:22.974Z,35.17
2023-04-18T23:22:25.799Z,35.16
2023-04-18T23:25:29.913Z,35.43
2023-04-18T23:28:32.670Z,35.30
2023-04-18T23:31:35.535Z,35.88
2023-04-18T23:34:38.321Z,35.31
2023-04-18T23:37:42.253Z,35.61
2023-04-18T23:40:46.385Z,35.24
2023-04-18T23:43:49.153Z,35.66
2023-04-18T23:46:51.984Z,35.10
2023-04-18T23:49:54.827Z,35.84
2023-04-18T23:52:57.628Z,35.60
2023-04-18T23:56:01.788Z,35.45
2023-04-18T23:59:04.636Z,35.63
